Latest Weather Observations for Sydney Olympic Park

IDN60901

Issued at 4:32 pm EDT Thursday 18 December 2014 (issued every 10 minutes, with the page automatically refreshed every 10 minutes)

About weather observations | Map of Sydney area stations | Latest observations for Sydney area | Other Formats
Station Details ID: 066212 Name: SYDNEY OLYMPIC PARK AWS (ARCHERY CENTRE) Lat: -33.83 Lon: 151.07 Height: 4.0 m
Data from the previous 72 hours. | See also: Recent months at Sydney Olympic Park
Date/Time
EDT
Tmp

°C
App
Tmp
°C
Dew
Point
°C
Rel
Hum
%
Delta-T

°C
Wind Press
QNH
hPa
Press
MSL
hPa
Rain
since
9 am
mm
Dir
 
Spd
km/h
Gust
km/h
Spd
kts
Gust
kts
18/04:30pm 26.0 27.3 20.1 70 3.8 E 13 19 7 10 - - 0.0
18/04:00pm 26.3 27.7 20.4 70 3.9 ENE 13 20 7 11 - - 0.0
18/03:30pm 25.7 26.4 19.6 69 3.9 E 15 22 8 12 - - 0.0
18/03:00pm 26.2 27.5 20.1 69 4.0 ENE 13 22 7 12 - - 0.0
18/02:30pm 26.2 28.1 19.8 68 4.2 ENE 9 20 5 11 - - 0.0
18/02:00pm 25.0 26.2 19.1 70 3.8 ENE 11 17 6 9 - - 0.0
18/01:30pm 26.0 27.3 20.1 70 3.8 ENE 13 20 7 11 - - 0.0
18/01:00pm 24.6 25.7 18.8 70 3.7 NE 11 20 6 11 - - 0.0
18/12:30pm 24.0 25.4 18.6 72 3.4 E 9 15 5 8 - - 0.0
18/12:00pm 23.2 24.7 18.1 73 3.2 E 7 15 4 8 - - 0.0
18/11:30am 22.7 24.4 18.5 77 2.6 E 7 11 4 6 - - 0.0
18/11:00am 21.9 24.3 17.9 78 2.5 WNW 2 6 1 3 - - 0.0
18/10:30am 21.3 24.2 18.1 82 2.0 CALM 0 0 0 0 - - 0.0
18/10:00am 19.7 20.8 17.1 85 1.6 WNW 7 9 4 5 - - 0.0
18/09:30am 19.2 20.8 17.0 87 1.3 SW 4 9 2 5 - - 0.0
18/09:00am 18.8 19.9 16.6 87 1.3 W 6 9 3 5 - - 0.0
18/08:30am 18.6 19.6 16.8 89 1.1 WSW 7 11 4 6 - - 0.0
18/08:00am 18.2 19.1 16.5 90 1.0 WSW 7 11 4 6 - - 0.0
18/07:30am 18.0 18.9 16.7 92 0.8 W 7 11 4 6 - - 0.0
18/07:27am 18.0 18.9 16.7 92 0.8 W 7 11 4 6 - - 0.0
18/07:08am 17.9 18.7 16.4 91 0.9 WNW 7 11 4 6 - - 0.0
18/07:00am 17.9 18.7 16.4 91 0.9 WNW 7 11 4 6 - - 0.0
18/06:30am 18.0 18.8 16.3 90 1.0 W 7 11 4 6 - - 0.0
18/06:29am 17.9 18.6 16.1 89 1.1 W 7 11 4 6 - - 0.0
18/06:09am 18.0 18.7 16.0 88 1.2 W 7 11 4 6 - - 0.0
18/05:30am 18.2 18.8 15.8 86 1.4 W 7 11 4 6 - - 0.0
18/04:30am 18.4 18.9 15.5 83 1.7 SW 7 11 4 6 - - 0.0
18/04:00am 18.7 20.1 15.4 81 1.9 WSW 2 7 1 4 - - 0.0
18/03:30am 18.5 20.0 15.7 84 1.7 SW 2 6 1 3 - - 0.0
18/03:00am 18.4 19.9 15.6 84 1.6 WNW 2 7 1 4 - - 0.0
18/02:30am 18.6 20.5 15.8 84 1.7 CALM 0 0 0 0 - - 0.0
18/02:00am 18.7 20.7 15.9 84 1.7 CALM 0 0 0 0 - - 0.0
18/01:30am 18.6 19.2 15.3 81 1.9 SW 6 7 3 4 - - 0.0
18/01:00am 18.5 20.4 15.7 84 1.7 CALM 0 0 0 0 - - 0.0
18/12:30am 18.8 20.7 15.7 82 1.8 CALM 0 0 0 0 - - 0.0
18/12:00am 19.0 19.8 14.9 77 2.4 E 4 9 2 5 - - 0.0
 
Date/Time
EDT
Tmp

°C
App
Tmp
°C
Dew
Point
°C
Rel
Hum
%
Delta-T

°C
Wind Press
QNH
hPa
Press
MSL
hPa
Rain
since
9 am
mm
Dir
 
Spd
km/h
Gust
km/h
Spd
kts
Gust
kts
17/11:30pm 18.7 19.1 15.4 81 1.9 N 7 11 4 6 - - 0.0
17/11:00pm 19.0 19.2 14.7 76 2.5 NNE 7 13 4 7 - - 0.0
17/10:30pm 18.9 19.2 14.4 75 2.6 N 6 11 3 6 - - 0.0
17/10:00pm 19.4 19.5 14.0 71 3.1 NE 6 11 3 6 - - 0.0
17/09:30pm 19.4 19.0 14.0 71 3.1 E 9 13 5 7 - - 0.0
17/09:00pm 19.4 18.5 13.6 69 3.3 ENE 11 20 6 11 - - 0.0
17/08:30pm 19.3 17.8 13.2 68 3.5 ESE 13 19 7 10 - - 0.0
17/08:00pm 19.4 17.6 13.3 68 3.5 E 15 28 8 15 - - 0.0
17/07:30pm 19.5 18.1 13.4 68 3.5 ESE 13 19 7 10 - - 0.0
17/07:00pm 19.6 17.6 13.8 69 3.3 SE 17 24 9 13 - - 0.0
17/06:30pm 19.7 18.5 13.9 69 3.3 SE 13 19 7 10 - - 0.0
17/06:00pm 19.6 17.6 13.8 69 3.3 SE 17 26 9 14 - - 0.0
17/05:30pm 19.9 17.9 13.8 68 3.5 SE 17 26 9 14 - - 0.0
17/05:00pm 20.2 18.3 14.1 68 3.5 SSE 17 26 9 14 - - 0.0
17/04:30pm 20.4 18.5 14.1 67 3.6 SSE 17 24 9 13 - - 0.0
17/04:00pm 20.6 18.5 13.6 64 4.0 SE 17 24 9 13 - - 0.0
17/03:30pm 21.0 18.5 13.4 62 4.4 SE 19 28 10 15 - - 0.0
17/03:00pm 21.1 18.6 14.0 64 4.1 SE 20 30 11 16 - - 0.0
17/02:30pm 21.1 18.4 13.5 62 4.4 SE 20 30 11 16 - - 0.0
17/02:00pm 22.8 21.2 15.9 65 4.2 SE 19 30 10 16 - - 0.0
17/01:30pm 21.5 19.0 13.4 60 4.7 SE 19 24 10 13 - - 0.0
17/01:00pm 21.8 19.5 14.2 62 4.4 SE 19 28 10 15 - - 0.0
17/12:30pm 21.4 18.8 14.8 66 3.9 SE 22 32 12 17 - - 0.0
17/12:00pm 21.6 19.2 14.5 64 4.2 SE 20 30 11 16 - - 0.0
17/11:30am 21.0 18.4 13.7 63 4.2 SE 20 32 11 17 - - 0.0
17/11:00am 20.9 18.2 13.6 63 4.2 SE 20 30 11 16 - - 0.0
17/10:30am 21.1 18.6 14.0 64 4.1 SE 20 30 11 16 - - 0.0
17/10:00am 21.1 18.5 13.8 63 4.2 SE 20 35 11 19 - - 0.0
17/09:30am 20.9 17.9 14.8 68 3.6 SSE 24 37 13 20 - - 0.0
17/09:00am 21.2 19.2 15.5 70 3.4 SSE 20 35 11 19 - - 0.0
17/08:30am 20.5 18.2 14.6 69 3.4 SSE 20 33 11 18 - - 0.0
17/08:00am 20.3 18.4 15.7 75 2.7 SSE 20 32 11 17 - - 0.0
17/07:30am 19.8 18.0 15.9 78 2.3 S 20 33 11 18 - - 0.0
17/07:00am 19.5 17.9 16.5 83 1.8 SSE 20 32 11 17 - - 0.0
17/06:30am 19.1 17.1 16.5 85 1.6 SSE 22 35 12 19 - - 0.0
17/06:00am 19.1 17.5 16.5 85 1.6 SSE 20 35 11 19 - - 0.0
17/05:40am 19.1 17.5 16.5 85 1.6 SSE 20 33 11 18 - - 0.0
17/05:30am 19.3 17.9 16.9 86 1.5 SSE 20 35 11 19 - - 0.0
17/05:12am 19.4 19.2 17.5 89 1.2 SE 15 22 8 12 - - 0.0
17/05:00am 19.7 19.7 18.0 90 1.0 SE 15 22 8 12 - - 0.0
17/04:40am 18.7 20.4 18.4 98 0.2 ESE 7 22 4 12 - - 0.0
17/04:30am 17.9 20.5 17.6 98 0.2 CALM 0 0 0 0 - - 0.0
17/04:17am 18.3 21.1 18.0 98 0.2 CALM 0 0 0 0 - - 0.0
17/04:00am 18.4 20.1 18.1 98 0.2 NNW 6 7 3 4 - - 0.0
17/03:30am 18.3 21.1 18.0 98 0.2 CALM 0 0 0 0 - - 0.0
17/03:00am 18.1 20.8 17.8 98 0.2 CALM 0 6 0 3 - - 0.0
17/02:30am 18.5 21.4 18.2 98 0.2 CALM 0 0 0 0 - - 0.0
17/02:25am 18.4 21.3 18.1 98 0.2 CALM 0 0 0 0 - - 0.0
17/02:14am 18.5 21.4 18.2 98 0.2 CALM 0 0 0 0 - - 0.0
17/02:00am 18.4 20.1 18.1 98 0.2 NNW 6 9 3 5 - - 0.0
17/01:59am 18.4 20.1 18.1 98 0.2 N 6 9 3 5 - - 0.0
17/01:44am 18.7 21.7 18.4 98 0.2 CALM 0 0 0 0 - - 0.0
17/01:39am 18.7 21.7 18.4 98 0.2 CALM 0 0 0 0 - - 0.0
17/01:30am 18.9 22.0 18.6 98 0.2 CALM 0 0 0 0 - - 0.0
17/01:20am 19.0 22.1 18.7 98 0.2 CALM 0 0 0 0 - - 0.0
17/01:11am 18.7 21.7 18.4 98 0.2 CALM 0 0 0 0 - - 0.0
17/01:00am 18.8 21.8 18.5 98 0.2 CALM 0 0 0 0 - - 0.0
17/12:38am 19.0 22.1 18.7 98 0.2 CALM 0 0 0 0 - - 0.0
17/12:30am 19.2 22.4 18.9 98 0.2 CALM 0 0 0 0 - - 0.0
17/12:00am 19.4 22.7 19.1 98 0.2 CALM 0 0 0 0 - - 0.0
 
Date/Time
EDT
Tmp

°C
App
Tmp
°C
Dew
Point
°C
Rel
Hum
%
Delta-T

°C
Wind Press
QNH
hPa
Press
MSL
hPa
Rain
since
9 am
mm
Dir
 
Spd
km/h
Gust
km/h
Spd
kts
Gust
kts
16/11:30pm 19.3 22.6 19.0 98 0.2 CALM 0 0 0 0 - - 0.0
16/11:00pm 19.7 23.1 19.4 98 0.2 CALM 0 0 0 0 - - 0.0
16/10:30pm 20.3 23.8 19.6 96 0.4 CALM 0 0 0 0 - - 0.0
16/10:00pm 20.8 24.2 19.3 91 0.9 CALM 0 0 0 0 - - 0.0
16/09:30pm 21.6 25.2 19.7 89 1.2 CALM 0 0 0 0 - - 0.0
16/09:00pm 22.5 24.9 20.0 86 1.6 SSE 7 9 4 5 - - 0.0
16/08:30pm 23.2 25.2 20.0 82 2.1 SE 9 13 5 7 - - 0.0
16/08:00pm 24.4 26.4 19.9 76 2.9 SE 9 15 5 8 - - 0.0
16/07:30pm 26.3 28.4 20.2 69 4.0 E 9 15 5 8 - - 0.0
16/07:00pm 27.1 28.3 19.9 64 4.7 E 13 20 7 11 - - 0.0
16/06:30pm 27.6 29.6 19.9 63 5.0 E 9 15 5 8 - - 0.0
16/06:00pm 27.3 28.6 19.4 62 5.1 E 11 17 6 9 - - 0.0
16/05:30pm 27.3 28.0 19.6 62 5.0 NE 15 39 8 21 - - 0.0
16/05:00pm 26.9 26.0 19.0 62 5.1 NE 22 43 12 23 - - 0.0
16/04:30pm 26.9 27.3 19.0 62 5.1 NE 15 32 8 17 - - 0.0
16/04:00pm 26.9 27.5 19.5 64 4.8 NE 15 26 8 14 - - 0.0
16/03:30pm 27.7 28.7 19.5 61 5.3 ENE 13 28 7 15 - - 0.0
16/03:00pm 27.5 27.0 17.9 55 6.1 NE 17 37 9 20 - - 0.0
16/02:30pm 27.2 27.2 18.2 58 5.7 NE 15 28 8 15 - - 0.0
16/02:00pm 25.9 25.0 18.1 62 4.9 NE 20 37 11 20 - - 0.0
16/01:30pm 25.2 25.0 18.4 66 4.3 ENE 17 32 9 17 - - 0.0
16/01:00pm 24.9 25.4 17.4 63 4.7 NE 11 20 6 11 - - 0.0
16/12:30pm 23.8 23.1 17.3 67 4.0 NE 17 28 9 15 - - 0.0
16/12:00pm 23.7 23.0 17.4 68 3.9 NE 17 26 9 14 - - 0.0
16/11:30am 22.7 21.7 16.7 69 3.7 NE 17 24 9 13 - - 0.0
16/11:00am 22.8 23.3 17.5 72 3.3 ENE 11 22 6 12 - - 0.0
16/10:30am 23.2 23.1 17.0 68 3.8 ENE 13 24 7 13 - - 0.0
16/10:00am 22.9 22.6 16.4 67 4.0 ENE 13 20 7 11 - - 0.0
16/09:30am 22.6 23.5 16.6 69 3.7 NNE 7 15 4 8 - - 0.0
16/09:00am 21.9 23.4 17.5 76 2.7 NW 6 11 3 6 - - 0.0
16/08:30am 22.3 22.6 15.9 67 3.9 N 9 17 5 9 - - 0.0
16/08:00am 21.8 21.6 16.7 73 3.1 N 13 19 7 10 - - 0.0
16/07:30am 20.5 21.2 16.1 76 2.6 NE 7 11 4 6 - - 0.0
16/07:00am 19.5 21.1 16.9 85 1.6 N 4 9 2 5 - - 0.0
16/06:30am 18.0 20.6 17.4 96 0.4 CALM 0 0 0 0 - - 0.0
16/06:00am 17.6 20.0 17.0 96 0.4 CALM 0 0 0 0 - - 0.0
16/05:30am 17.9 20.3 16.9 94 0.6 CALM 0 0 0 0 - - 0.0
16/05:00am 18.4 20.5 17.1 92 0.8 NNE 2 6 1 3 - - 0.0
16/04:30am 18.6 20.3 17.1 91 0.9 N 4 9 2 5 - - 0.0
16/04:00am 18.2 20.9 17.7 97 0.3 CALM 0 6 0 3 - - 0.0
16/03:30am 17.7 20.1 17.1 96 0.4 CALM 0 0 0 0 - - 0.0
16/03:00am 17.4 19.6 16.4 94 0.6 CALM 0 0 0 0 - - 0.0
16/02:30am 17.6 19.6 16.1 91 0.9 CALM 0 0 0 0 - - 0.0
16/02:00am 18.3 20.0 16.1 87 1.3 ESE 2 7 1 4 - - 0.0
16/01:30am 19.7 20.4 16.2 80 2.1 E 7 11 4 6 - - 0.0
16/01:00am 19.5 19.9 16.2 81 2.0 E 9 13 5 7 - - 0.0
16/12:30am 18.1 19.5 15.5 85 1.5 ENE 2 7 1 4 - - 0.0
16/12:00am 18.4 20.0 14.9 80 2.0 CALM 0 0 0 0 - - 0.0
 
Date/Time
EDT
Tmp

°C
App
Tmp
°C
Dew
Point
°C
Rel
Hum
%
Delta-T

°C
Wind Press
QNH
hPa
Press
MSL
hPa
Rain
since
9 am
mm
Dir
 
Spd
km/h
Gust
km/h
Spd
kts
Gust
kts
15/11:30pm 19.1 19.3 14.1 73 2.9 NNW 6 13 3 7 - - 0.0
15/11:00pm 20.4 20.6 14.3 68 3.5 NE 6 9 3 5 - - 0.0
15/10:30pm 20.8 20.9 14.5 67 3.7 NE 7 11 4 6 - - 0.0
15/10:00pm 20.7 20.9 14.1 66 3.8 NE 6 19 3 10 - - 0.0
15/09:30pm 21.3 20.9 14.2 64 4.1 NE 9 17 5 9 - - 0.0
15/09:00pm 21.5 20.9 14.6 65 4.0 NE 11 17 6 9 - - 0.0
15/08:30pm 21.8 21.3 15.9 69 3.5 NE 13 20 7 11 - - 0.0
15/08:00pm 22.2 20.6 15.1 64 4.2 NE 17 26 9 14 - - 0.0
15/07:30pm 22.9 21.1 14.5 59 5.0 NE 17 28 9 15 - - 0.0
15/07:00pm 23.8 22.9 14.8 57 5.4 ENE 13 20 7 11 - - 0.0
15/06:30pm 24.4 23.6 15.1 56 5.6 ENE 13 26 7 14 - - 0.0
15/06:00pm 24.7 23.1 15.1 55 5.8 E 17 24 9 13 - - 0.0
15/05:30pm 25.0 23.4 15.0 53 6.0 E 17 28 9 15 - - 0.0
15/05:00pm 25.4 23.6 14.5 51 6.5 NE 17 22 9 12 - - 0.0

Latest Capital City Observations: Canberra | Sydney | Melbourne | Brisbane | Adelaide | Perth | Hobart | Darwin

Other Formats:

Comma delimited format used in spreadsheet applications
http://www.bom.gov.au/fwo/IDN60901/IDN60901.95765.axf

JavaScript Object Notation format (JSON) in row-major order
http://www.bom.gov.au/fwo/IDN60901/IDN60901.95765.json